Time;durP1;ratioP1;P1;durP2;ratioP2;P2;SDS_P1;SDS_P2;PMS_P1;PMS_P2;Temp;Humidity;BMP_temperature;BMP_pressure;BME280_temperature;BME280_humidity;BME280_pressure;Samples;Min_cycle;Max_cycle;Signal;HPM_P1;HPM_P2
2022/06/23 00:01:01;;;;;;;5.00;3.23;;;14.30;99.90;;;;;;4993123;28;20240;-65
2022/06/23 00:03:33;;;;;;;3.60;3.30;;;14.30;99.90;;;;;;4993123;28;20209;-65
2022/06/23 00:06:03;;;;;;;4.03;3.20;;;14.40;99.90;;;;;;4993756;28;20211;-65
2022/06/23 00:08:30;;;;;;;3.90;3.10;;;14.60;99.90;;;;;;4992997;28;20805;-65
2022/06/23 00:10:58;;;;;;;3.90;3.40;;;14.80;99.90;;;;;;4992988;28;20232;-65
2022/06/23 00:13:33;;;;;;;4.83;3.20;;;14.80;99.90;;;;;;4992036;28;20243;-65
2022/06/23 00:16:03;;;;;;;4.90;3.37;;;14.90;99.90;;;;;;4993162;28;20816;-65
2022/06/23 00:18:34;;;;;;;4.03;3.40;;;15.00;99.90;;;;;;4987434;28;20237;-65
2022/06/23 00:21:05;;;;;;;3.40;3.00;;;15.10;99.90;;;;;;4988381;28;20198;-65
2022/06/23 00:23:36;;;;;;;3.67;3.00;;;15.20;99.90;;;;;;4988217;28;20205;-65
2022/06/23 00:26:08;;;;;;;5.57;3.50;;;15.10;99.90;;;;;;4986001;28;20206;-65
2022/06/23 00:28:37;;;;;;;5.00;3.10;;;15.00;99.90;;;;;;4989699;28;20278;-65
2022/06/23 00:31:08;;;;;;;3.77;3.40;;;15.00;99.90;;;;;;4980708;28;20259;-65
2022/06/23 00:33:40;;;;;;;4.47;3.57;;;14.90;99.90;;;;;;4977277;28;20247;-65
2022/06/23 00:36:17;;;;;;;4.53;3.40;;;14.90;99.90;;;;;;4991586;28;20344;-65
2022/06/23 00:38:44;;;;;;;4.07;3.67;;;14.80;99.90;;;;;;4991900;28;20197;-65
2022/06/23 00:41:18;;;;;;;4.67;3.70;;;14.70;99.90;;;;;;4991003;28;20236;-65
2022/06/23 00:43:47;;;;;;;5.73;3.40;;;14.50;99.90;;;;;;4992663;28;20268;-65
2022/06/23 00:46:24;;;;;;;5.30;3.47;;;14.60;99.90;;;;;;4992575;28;20542;-65
2022/06/23 00:48:56;;;;;;;3.77;3.47;;;14.30;99.90;;;;;;4992090;28;20228;-65
2022/06/23 00:51:28;;;;;;;6.23;4.10;;;13.90;99.90;;;;;;4992058;28;20240;-65
2022/06/23 00:53:59;;;;;;;6.63;4.10;;;13.80;99.90;;;;;;4992441;28;20202;-65
2022/06/23 00:56:43;;;;;;;4.20;3.80;;;13.80;99.90;;;;;;4992706;28;20735;-65
2022/06/23 00:59:19;;;;;;;4.30;3.47;;;14.10;99.90;;;;;;4992094;28;20652;-65
2022/06/23 01:01:52;;;;;;;4.47;4.07;;;14.20;99.90;;;;;;4975204;28;20204;-65
2022/06/23 01:04:28;;;;;;;6.87;4.33;;;14.30;99.90;;;;;;4973434;28;20279;-65
2022/06/23 01:07:00;;;;;;;6.23;4.17;;;14.20;99.90;;;;;;4975332;28;20282;-65
2022/06/23 01:09:39;;;;;;;6.23;4.80;;;14.30;99.90;;;;;;4991558;28;20224;-65
2022/06/23 01:12:17;;;;;;;4.13;3.73;;;14.50;99.90;;;;;;4992042;28;20208;-65
2022/06/23 01:14:50;;;;;;;5.53;4.47;;;14.30;99.90;;;;;;4974827;28;20200;-65
2022/06/23 01:17:24;;;;;;;7.07;4.10;;;14.10;99.90;;;;;;4992083;28;20208;-65
2022/06/23 01:20:16;;;;;;;4.40;3.87;;;14.10;99.90;;;;;;4982275;28;20303;-65
2022/06/23 01:23:07;;;;;;;5.37;4.00;;;13.70;99.90;;;;;;4979316;28;20205;-65
2022/06/23 01:26:10;;;;;;;4.00;3.60;;;13.20;99.90;;;;;;4987675;28;20236;-65
2022/06/23 01:28:40;;;;;;;5.17;3.40;;;13.10;99.90;;;;;;4993178;28;20229;-65
2022/06/23 01:31:15;;;;;;;5.73;3.90;;;13.10;99.90;;;;;;4996318;28;20251;-65
2022/06/23 01:33:47;;;;;;;4.63;3.67;;;13.20;99.90;;;;;;4994553;28;20236;-65
2022/06/23 01:36:18;;;;;;;6.47;3.70;;;13.20;99.90;;;;;;4986329;28;20295;-65
2022/06/23 01:38:56;;;;;;;6.00;4.03;;;13.50;99.90;;;;;;4994665;28;20209;-65
2022/06/23 01:41:31;;;;;;;4.53;4.13;;;13.70;99.90;;;;;;4994184;28;20247;-65
2022/06/23 01:44:09;;;;;;;6.40;4.43;;;13.70;99.90;;;;;;4977225;28;20251;-65
2022/06/23 01:46:38;;;;;;;8.00;4.73;;;13.70;99.90;;;;;;4993827;28;20823;-65
2022/06/23 01:49:13;;;;;;;5.70;4.67;;;13.60;99.90;;;;;;4993674;28;20264;-65
2022/06/23 01:51:47;;;;;;;5.43;4.70;;;13.70;99.90;;;;;;4993980;28;20295;-65
2022/06/23 01:54:22;;;;;;;7.73;4.97;;;13.60;99.90;;;;;;4976329;28;20236;-65
2022/06/23 01:56:59;;;;;;;6.63;4.93;;;13.60;99.90;;;;;;4994250;28;20651;-65
2022/06/23 01:59:45;;;;;;;6.80;4.67;;;13.60;99.90;;;;;;4976589;28;20686;-65
2022/06/23 02:02:41;;;;;;;8.33;5.50;;;13.60;99.90;;;;;;4994283;28;20209;-65
2022/06/23 02:05:14;;;;;;;6.20;4.80;;;13.50;99.90;;;;;;4989199;28;20208;-65
2022/06/23 02:07:48;;;;;;;5.17;3.80;;;13.50;99.90;;;;;;4993751;28;20201;-65
2022/06/23 02:10:23;;;;;;;6.97;4.53;;;13.50;99.90;;;;;;4993615;28;20255;-65
2022/06/23 02:13:00;;;;;;;6.50;5.10;;;13.20;99.90;;;;;;4976537;28;20193;-65
2022/06/23 02:15:34;;;;;;;7.20;5.00;;;13.30;99.90;;;;;;4977212;28;20571;-65
2022/06/23 02:18:12;;;;;;;8.40;5.63;;;13.30;99.90;;;;;;4976665;28;20291;-65
2022/06/23 02:20:48;;;;;;;8.43;5.30;;;13.40;99.90;;;;;;4976668;28;20526;-65
2022/06/23 02:23:25;;;;;;;6.53;5.47;;;13.40;99.90;;;;;;4976752;28;20591;-65
2022/06/23 02:25:57;;;;;;;7.23;5.13;;;13.50;99.90;;;;;;4975570;28;20272;-65
2022/06/23 02:28:35;;;;;;;5.23;4.50;;;13.50;99.90;;;;;;4992971;28;20256;-65
2022/06/23 02:31:12;;;;;;;6.27;4.63;;;13.20;99.90;;;;;;4993286;28;20293;-65
2022/06/23 02:33:44;;;;;;;7.37;4.30;;;12.80;99.90;;;;;;4976310;28;20203;-65
2022/06/23 02:36:27;;;;;;;6.57;4.90;;;12.30;99.90;;;;;;4949340;28;1166315;-65
2022/06/23 02:38:57;;;;;;;8.23;5.17;;;12.20;99.90;;;;;;4959139;28;20206;-65
2022/06/23 02:41:29;;;;;;;7.87;5.00;;;12.30;99.90;;;;;;4987850;28;20566;-65
2022/06/23 02:44:15;;;;;;;7.40;5.43;;;12.40;99.90;;;;;;4991772;28;20534;-65
2022/06/23 02:47:22;;;;;;;8.27;6.57;;;12.50;99.90;;;;;;4995123;28;20292;-65
2022/06/23 02:50:05;;;;;;;8.47;6.17;;;12.60;99.90;;;;;;4927047;29;20321;-65
2022/06/23 02:52:52;;;;;;;8.57;5.70;;;12.50;99.90;;;;;;4952927;28;20264;-65
2022/06/23 02:55:43;;;;;;;7.57;5.80;;;12.80;99.90;;;;;;4977241;28;20205;-65
2022/06/23 02:58:15;;;;;;;11.50;5.80;;;12.80;99.90;;;;;;4978413;28;20288;-65
2022/06/23 03:00:48;;;;;;;7.80;5.40;;;12.80;99.90;;;;;;4994399;28;20205;-65
2022/06/23 03:03:24;;;;;;;10.90;5.60;;;12.70;99.90;;;;;;4994307;28;20337;-65
2022/06/23 03:05:57;;;;;;;7.20;5.00;;;12.40;99.90;;;;;;4994218;28;20209;-65
2022/06/23 03:08:31;;;;;;;7.23;5.10;;;12.40;99.90;;;;;;4984598;28;20312;-65
2022/06/23 03:11:03;;;;;;;7.83;5.50;;;12.30;99.90;;;;;;4978160;28;20251;-65
2022/06/23 03:13:40;;;;;;;7.97;5.40;;;12.50;99.90;;;;;;4993877;28;20197;-65
2022/06/23 03:16:12;;;;;;;8.90;5.60;;;12.60;99.90;;;;;;4993186;28;20232;-65
2022/06/23 03:18:50;;;;;;;6.93;5.40;;;12.60;99.90;;;;;;4993629;28;20556;-65
2022/06/23 03:21:24;;;;;;;6.87;4.73;;;12.70;99.90;;;;;;4988778;28;20657;-65
2022/06/23 03:23:56;;;;;;;7.57;5.17;;;12.90;99.90;;;;;;4974368;28;20726;-65
2022/06/23 03:26:28;;;;;;;10.83;6.03;;;13.10;99.90;;;;;;4973801;28;20206;-65
2022/06/23 03:29:00;;;;;;;8.37;6.17;;;13.20;99.90;;;;;;4974932;28;20229;-65
2022/06/23 03:31:31;;;;;;;10.63;7.33;;;13.30;99.90;;;;;;4974893;28;20656;-65
2022/06/23 03:34:04;;;;;;;10.33;7.00;;;13.30;99.90;;;;;;4974724;28;20244;-65
2022/06/23 03:36:38;;;;;;;11.47;7.50;;;13.30;99.90;;;;;;4986921;28;20562;-65
2022/06/23 03:42:09;;;;;;;13.37;8.00;;;13.50;99.90;;;;;;4979445;28;20228;-65
2022/06/23 03:44:45;;;;;;;12.27;8.30;;;13.50;99.90;;;;;;4994089;28;20205;-65
2022/06/23 03:47:20;;;;;;;15.07;8.50;;;13.60;99.90;;;;;;4976647;28;20274;-66
2022/06/23 03:49:54;;;;;;;11.20;7.03;;;13.70;99.90;;;;;;4976193;28;20224;-66
2022/06/23 03:52:30;;;;;;;8.57;6.33;;;13.80;99.90;;;;;;4975142;28;20689;-66
2022/06/23 03:55:02;;;;;;;9.00;5.90;;;14.20;99.90;;;;;;4976104;28;20207;-65
2022/06/23 03:57:32;;;;;;;7.47;5.57;;;14.00;99.90;;;;;;4993319;28;20724;-66
2022/06/23 04:00:19;;;;;;;7.67;5.63;;;13.80;99.90;;;;;;4992833;28;20243;-66
2022/06/23 04:02:51;;;;;;;8.17;5.43;;;13.90;99.90;;;;;;4976628;28;20200;-66
2022/06/23 04:05:23;;;;;;;9.40;5.67;;;13.60;99.90;;;;;;4993159;28;20217;-67
2022/06/23 04:07:53;;;;;;;9.33;5.83;;;13.70;99.90;;;;;;4993672;28;20656;-66
2022/06/23 04:10:25;;;;;;;10.03;5.90;;;13.70;99.90;;;;;;4992834;28;20321;-67
2022/06/23 04:12:57;;;;;;;9.13;5.83;;;14.80;99.90;;;;;;4989882;28;20256;-67
2022/06/23 04:15:29;;;;;;;9.70;6.37;;;17.00;99.90;;;;;;4974126;28;20237;-67
2022/06/23 04:18:02;;;;;;;7.30;6.20;;;18.10;99.90;;;;;;4981609;28;20248;-67
2022/06/23 04:20:34;;;;;;;7.83;5.87;;;19.10;99.90;;;;;;4987397;28;20205;-67
2022/06/23 04:23:05;;;;;;;7.03;5.47;;;19.30;98.60;;;;;;4984905;28;20208;-67
2022/06/23 04:25:42;;;;;;;11.00;5.68;;;19.30;98.60;;;;;;4989624;28;20251;-66
2022/06/23 04:28:22;;;;;;;9.10;5.88;;;18.20;99.90;;;;;;4987466;28;20232;-66
2022/06/23 04:30:51;;;;;;;9.52;5.40;;;16.60;99.90;;;;;;4992430;28;20216;-66
2022/06/23 04:33:21;;;;;;;9.77;6.15;;;16.00;99.90;;;;;;4987476;28;20241;-67
2022/06/23 04:35:52;;;;;;;15.30;6.68;;;15.80;99.90;;;;;;4975832;28;20884;-67
2022/06/23 04:38:28;;;;;;;10.65;5.95;;;15.90;99.90;;;;;;4992710;28;20236;-66
2022/06/23 04:41:00;;;;;;;8.65;5.70;;;16.40;99.90;;;;;;4992474;28;20197;-67
2022/06/23 04:43:34;;;;;;;10.05;5.53;;;17.00;99.90;;;;;;4993410;28;20213;-66
2022/06/23 04:46:06;;;;;;;11.60;6.20;;;16.40;99.90;;;;;;4993329;28;20299;-67
2022/06/23 04:48:42;;;;;;;10.50;6.32;;;16.10;99.90;;;;;;4993071;28;20201;-67
2022/06/23 04:51:24;;;;;;;7.13;5.78;;;16.10;99.90;;;;;;4992596;28;20643;-66
2022/06/23 04:54:01;;;;;;;8.98;6.03;;;15.80;99.90;;;;;;4975020;28;20211;-67
2022/06/23 04:56:37;;;;;;;9.73;5.90;;;16.10;99.90;;;;;;4991606;28;20289;-66
2022/06/23 04:59:15;;;;;;;10.00;6.15;;;15.70;99.90;;;;;;4992663;28;20220;-66
2022/06/23 05:01:46;;;;;;;10.52;6.63;;;16.00;99.90;;;;;;4992685;28;20610;-66
2022/06/23 05:04:20;;;;;;;11.13;5.97;;;15.70;99.90;;;;;;4984720;28;20621;-67
2022/06/23 05:06:52;;;;;;;10.55;6.82;;;16.00;99.90;;;;;;4992887;28;20263;-67
2022/06/23 05:09:26;;;;;;;8.40;5.88;;;16.80;99.90;;;;;;4992412;28;20695;-67
2022/06/23 05:11:57;;;;;;;7.72;5.97;;;18.00;99.90;;;;;;4992469;28;20207;-67
2022/06/23 05:14:31;;;;;;;10.38;6.13;;;18.40;99.90;;;;;;4992913;28;20239;-67
2022/06/23 05:17:06;;;;;;;7.95;6.32;;;18.20;99.90;;;;;;4992444;28;20239;-67
2022/06/23 05:19:37;;;;;;;9.65;6.32;;;17.80;99.90;;;;;;4975108;28;20251;-67
2022/06/23 05:22:18;;;;;;;7.70;5.70;;;17.70;99.90;;;;;;4992660;28;20205;-67
2022/06/23 05:24:47;;;;;;;6.78;5.68;;;17.30;99.90;;;;;;4991443;28;20205;-66
2022/06/23 05:27:22;;;;;;;8.50;6.10;;;17.40;99.90;;;;;;4972986;28;20202;-66
2022/06/23 05:29:58;;;;;;;8.95;6.70;;;18.30;99.90;;;;;;4972941;28;20280;-66
2022/06/23 05:32:29;;;;;;;11.27;6.78;;;17.80;99.90;;;;;;4973316;28;20205;-66
2022/06/23 05:35:02;;;;;;;10.13;6.80;;;17.30;99.90;;;;;;4973150;28;20198;-67
2022/06/23 05:37:37;;;;;;;10.55;7.15;;;17.40;99.90;;;;;;4973045;28;20209;-66
2022/06/23 05:40:21;;;;;;;11.57;6.47;;;17.50;99.90;;;;;;4955543;28;20197;-66
2022/06/23 05:42:51;;;;;;;12.93;6.75;;;17.70;99.90;;;;;;4973106;28;20292;-66
2022/06/23 05:45:23;;;;;;;8.75;6.78;;;18.70;99.90;;;;;;4972799;28;20224;-67
2022/06/23 05:47:51;;;;;;;9.13;6.55;;;19.50;99.90;;;;;;4974829;28;20851;-68
2022/06/23 05:50:22;;;;;;;11.88;6.63;;;18.20;99.90;;;;;;4991726;28;20676;-67
2022/06/23 05:52:57;;;;;;;8.00;6.15;;;18.40;99.90;;;;;;4991544;28;20862;-67
2022/06/23 05:55:32;;;;;;;8.65;5.93;;;18.60;99.90;;;;;;4974148;28;20214;-66
2022/06/23 05:58:04;;;;;;;10.05;6.35;;;19.50;99.90;;;;;;4992345;28;20216;-66
2022/06/23 06:00:37;;;;;;;7.93;6.03;;;18.70;99.90;;;;;;4992325;28;20717;-66
2022/06/23 06:03:10;;;;;;;9.20;6.03;;;18.50;99.90;;;;;;4991364;28;20209;-66
2022/06/23 06:05:39;;;;;;;11.32;5.60;;;18.40;99.90;;;;;;4992022;28;20209;-66
2022/06/23 06:08:18;;;;;;;7.18;5.95;;;18.40;99.90;;;;;;4991719;28;20575;-66
2022/06/23 06:10:47;;;;;;;10.82;5.88;;;18.60;99.90;;;;;;4974385;28;20256;-67
2022/06/23 06:13:18;;;;;;;10.52;6.03;;;18.80;99.90;;;;;;4992312;28;20220;-66
2022/06/23 06:15:49;;;;;;;10.43;5.68;;;18.80;99.90;;;;;;4995253;28;20204;-66
2022/06/23 06:18:22;;;;;;;8.98;5.78;;;18.90;99.90;;;;;;4995820;28;20213;-67
2022/06/23 06:20:50;;;;;;;8.55;5.88;;;19.00;99.90;;;;;;4995557;28;20213;-67
2022/06/23 06:23:25;;;;;;;9.02;6.18;;;19.00;99.90;;;;;;4995940;28;20230;-66
2022/06/23 06:25:53;;;;;;;8.27;5.30;;;19.00;99.90;;;;;;4995330;28;20622;-67
2022/06/23 06:28:22;;;;;;;9.82;5.50;;;19.10;99.90;;;;;;4994943;28;20815;-67
2022/06/23 06:30:58;;;;;;;9.65;5.53;;;19.00;99.90;;;;;;4995207;28;20233;-67
2022/06/23 06:33:37;;;;;;;8.65;5.30;;;19.00;99.90;;;;;;4995166;28;20290;-66
2022/06/23 06:36:31;;;;;;;7.35;5.35;;;19.30;99.90;;;;;;4995182;28;20747;-67
2022/06/23 06:39:05;;;;;;;6.68;4.65;;;19.20;99.90;;;;;;4994972;28;20244;-66
2022/06/23 06:41:32;;;;;;;6.80;4.70;;;19.40;99.90;;;;;;4987935;28;20579;-67
2022/06/23 06:44:01;;;;;;;6.13;4.63;;;19.40;99.90;;;;;;4986316;28;20209;-67
2022/06/23 06:46:28;;;;;;;6.53;4.97;;;19.50;99.90;;;;;;4995487;28;20267;-67
2022/06/23 06:48:56;;;;;;;9.02;4.70;;;19.60;99.90;;;;;;4995310;28;20276;-67
2022/06/23 06:51:26;;;;;;;8.23;4.60;;;19.60;99.90;;;;;;4994865;28;20283;-67
2022/06/23 06:53:58;;;;;;;5.70;3.97;;;19.70;99.90;;;;;;4995033;28;20300;-67
2022/06/23 06:56:35;;;;;;;8.88;4.72;;;19.80;99.90;;;;;;4994355;28;20205;-66
2022/06/23 06:59:09;;;;;;;7.50;4.97;;;19.80;99.90;;;;;;4993622;28;20215;-66
2022/06/23 07:01:40;;;;;;;10.10;5.10;;;19.90;99.90;;;;;;4977153;28;20209;-66
2022/06/23 07:04:13;;;;;;;6.32;4.30;;;20.00;99.90;;;;;;4994820;28;20255;-67
2022/06/23 07:06:42;;;;;;;6.47;4.60;;;20.00;99.90;;;;;;4994748;28;20256;-67
2022/06/23 07:09:16;;;;;;;6.43;5.05;;;20.20;99.90;;;;;;4994051;28;20229;-67
2022/06/23 07:11:49;;;;;;;8.88;4.30;;;20.20;99.90;;;;;;4993950;28;20200;-66
2022/06/23 07:14:24;;;;;;;5.80;4.05;;;20.20;99.90;;;;;;4957395;28;20220;-67
2022/06/23 07:16:54;;;;;;;7.18;4.97;;;20.20;97.60;;;;;;4975788;28;20551;-67
2022/06/23 07:19:28;;;;;;;6.90;4.20;;;20.30;99.90;;;;;;4974934;28;20272;-67
2022/06/23 07:22:03;;;;;;;6.45;4.57;;;20.50;99.90;;;;;;4975117;28;20197;-67
2022/06/23 07:24:34;;;;;;;5.13;4.55;;;20.50;99.90;;;;;;4958026;28;20643;-67
2022/06/23 07:27:06;;;;;;;8.82;4.93;;;20.50;99.90;;;;;;4974028;28;20221;-67
2022/06/23 07:29:41;;;;;;;8.38;4.18;;;20.50;99.90;;;;;;4974597;28;20226;-67
2022/06/23 07:32:15;;;;;;;4.32;3.92;;;20.50;97.60;;;;;;4975797;28;20209;-67
2022/06/23 07:34:46;;;;;;;6.75;4.43;;;20.60;99.50;;;;;;4975831;28;20212;-67
2022/06/23 07:37:22;;;;;;;6.32;3.97;;;20.80;99.90;;;;;;4993915;28;20208;-67
2022/06/23 07:39:54;;;;;;;7.15;4.55;;;20.70;97.30;;;;;;4994047;28;20209;-67
2022/06/23 07:42:37;;;;;;;4.30;3.90;;;20.90;99.80;;;;;;4993762;28;20208;-67
2022/06/23 07:45:11;;;;;;;7.38;4.15;;;21.00;98.60;;;;;;4994167;28;20224;-67
2022/06/23 07:47:38;;;;;;;8.20;4.22;;;21.00;99.90;;;;;;4976871;28;20213;-67
2022/06/23 07:50:06;;;;;;;6.07;4.53;;;21.10;99.90;;;;;;4993430;28;20233;-67
2022/06/23 07:52:33;;;;;;;8.18;4.28;;;21.10;99.90;;;;;;4993813;28;20248;-67
2022/06/23 07:55:01;;;;;;;7.53;4.95;;;21.20;99.90;;;;;;4993984;28;20264;-67
2022/06/23 07:57:33;;;;;;;9.23;4.90;;;21.30;98.20;;;;;;4992736;28;20207;-67
2022/06/23 08:00:04;;;;;;;5.60;4.13;;;21.30;99.90;;;;;;4993546;28;20201;-67
2022/06/23 08:02:37;;;;;;;6.10;4.20;;;21.60;99.90;;;;;;4993661;28;20208;-67
2022/06/23 08:05:10;;;;;;;5.60;4.20;;;21.60;97.30;;;;;;4993746;28;20201;-67
2022/06/23 08:07:38;;;;;;;7.88;3.97;;;21.60;95.50;;;;;;4992693;28;20205;-67
2022/06/23 08:10:09;;;;;;;4.65;4.15;;;21.90;99.90;;;;;;4993294;28;20319;-67
2022/06/23 08:12:56;;;;;;;8.18;4.20;;;21.80;96.40;;;;;;4993650;28;20208;-67
2022/06/23 08:18:30;;;;;;;7.05;4.70;;;21.90;88.50;;;;;;4993710;28;20259;-67
2022/06/23 08:21:04;;;;;;;6.53;4.78;;;22.00;96.50;;;;;;4993243;28;20204;-67
2022/06/23 08:23:37;;;;;;;6.22;4.10;;;22.10;99.00;;;;;;4992789;28;20572;-67
2022/06/23 08:26:07;;;;;;;9.88;4.80;;;22.20;93.90;;;;;;4991956;28;20585;-67
2022/06/23 08:28:36;;;;;;;8.63;4.25;;;22.30;95.10;;;;;;4990024;28;20283;-67
2022/06/23 08:31:05;;;;;;;7.07;4.70;;;22.20;92.70;;;;;;4987195;28;20770;-66
2022/06/23 08:33:32;;;;;;;5.88;4.28;;;22.40;96.30;;;;;;4987836;28;20209;-67
2022/06/23 08:36:04;;;;;;;7.60;4.15;;;22.50;86.10;;;;;;4990576;28;20637;-67
2022/06/23 08:38:39;;;;;;;6.72;4.57;;;22.50;90.20;;;;;;4979342;28;20205;-67
2022/06/23 08:41:19;;;;;;;10.93;4.88;;;22.60;87.20;;;;;;4992584;28;20208;-67
2022/06/23 08:43:54;;;;;;;5.30;4.25;;;22.60;89.30;;;;;;4977258;28;20636;-67
2022/06/23 08:46:29;;;;;;;4.07;3.70;;;22.90;88.20;;;;;;4976536;28;20213;-67
2022/06/23 08:49:03;;;;;;;6.90;4.03;;;23.10;86.60;;;;;;4976098;28;20212;-67
2022/06/23 08:51:40;;;;;;;5.88;4.63;;;23.00;77.70;;;;;;4975829;28;20256;-67
2022/06/23 08:54:17;;;;;;;5.93;4.47;;;23.40;83.50;;;;;;4976646;28;20212;-67
2022/06/23 08:56:50;;;;;;;5.53;3.22;;;23.80;80.50;;;;;;4975923;28;20201;-67
2022/06/23 08:59:24;;;;;;;8.55;4.30;;;24.30;70.00;;;;;;4993229;28;20219;-67
2022/06/23 09:01:58;;;;;;;5.47;3.85;;;24.80;66.40;;;;;;4993556;28;20659;-67
2022/06/23 09:04:36;;;;;;;9.48;4.32;;;25.00;68.30;;;;;;4975818;28;20200;-67
2022/06/23 09:07:08;;;;;;;4.57;3.72;;;25.20;61.90;;;;;;4975903;28;20207;-67
2022/06/23 09:09:43;;;;;;;7.47;3.65;;;25.50;55.60;;;;;;4984981;28;20205;-67
2022/06/23 09:12:17;;;;;;;5.25;4.07;;;25.70;53.50;;;;;;4988720;28;20212;-67
2022/06/23 09:15:23;;;;;;;6.15;4.20;;;25.70;57.00;;;;;;4990987;28;20259;-67
2022/06/23 09:18:21;;;;;;;6.25;4.07;;;26.00;61.50;;;;;;4976861;28;20295;-67
2022/06/23 09:21:05;;;;;;;5.00;3.30;;;26.50;56.50;;;;;;4907928;28;20212;-67
2022/06/23 09:24:05;;;;;;;5.25;2.90;;;27.10;47.90;;;;;;4992822;28;20570;-67
2022/06/23 09:26:39;;;;;;;6.32;3.20;;;27.20;48.20;;;;;;4988763;28;20209;-67
2022/06/23 09:29:17;;;;;;;5.80;3.17;;;27.30;45.00;;;;;;4974718;28;20197;-67
2022/06/23 09:31:59;;;;;;;5.90;3.08;;;27.20;49.50;;;;;;4984548;28;20225;-67
2022/06/23 09:34:45;;;;;;;3.05;2.75;;;27.30;37.10;;;;;;4976270;28;20209;-67
2022/06/23 09:37:30;;;;;;;6.25;3.10;;;27.40;36.40;;;;;;4976505;28;20598;-67
2022/06/23 09:40:10;;;;;;;4.75;3.55;;;27.50;39.00;;;;;;4992532;28;20215;-67
2022/06/23 09:43:06;;;;;;;5.47;2.92;;;27.90;39.20;;;;;;4992827;28;20205;-69
2022/06/23 09:45:58;;;;;;;4.47;3.05;;;28.10;36.40;;;;;;4977836;28;20651;-67
2022/06/23 09:48:48;;;;;;;3.88;3.47;;;28.10;34.40;;;;;;4993086;28;20255;-67
2022/06/23 09:51:45;;;;;;;2.83;2.60;;;27.80;42.20;;;;;;4980608;28;20239;-67
2022/06/23 09:54:45;;;;;;;3.53;3.22;;;27.80;37.80;;;;;;4971799;28;20209;-67
2022/06/23 09:57:47;;;;;;;4.45;3.20;;;28.10;37.70;;;;;;4963513;28;20215;-67
2022/06/23 10:00:18;;;;;;;6.00;3.00;;;28.40;32.10;;;;;;4980651;28;20678;-67
2022/06/23 10:02:58;;;;;;;8.75;3.05;;;28.60;29.50;;;;;;4996593;28;20212;-67
2022/06/23 10:05:54;;;;;;;3.30;2.78;;;28.90;29.10;;;;;;4996369;28;20205;-67
2022/06/23 10:08:42;;;;;;;4.88;2.80;;;28.70;29.80;;;;;;4981922;28;20210;-67
2022/06/23 10:11:34;;;;;;;3.13;2.85;;;28.60;25.80;;;;;;4976093;28;20221;-67
2022/06/23 10:14:19;;;;;;;4.55;3.20;;;28.40;33.90;;;;;;4974316;28;20205;-67
2022/06/23 10:17:09;;;;;;;3.17;2.70;;;28.60;26.40;;;;;;4996029;28;20297;-67
2022/06/23 10:20:03;;;;;;;4.43;3.03;;;28.60;27.00;;;;;;4995944;28;20216;-67
2022/06/23 10:22:45;;;;;;;4.53;2.80;;;28.30;25.90;;;;;;4980208;28;20205;-67
2022/06/23 10:25:35;;;;;;;3.38;2.78;;;28.70;27.30;;;;;;4979382;28;20570;-67
2022/06/23 10:28:27;;;;;;;3.53;3.03;;;28.80;25.90;;;;;;4995687;28;20662;-67
2022/06/23 10:31:04;;;;;;;3.53;2.95;;;28.90;23.90;;;;;;4980580;28;20690;-67
2022/06/23 10:34:10;;;;;;;3.83;3.00;;;29.00;25.10;;;;;;4996032;28;20213;-67
2022/06/23 10:37:05;;;;;;;3.47;2.88;;;29.10;24.30;;;;;;4972405;28;20228;-67
2022/06/23 10:40:02;;;;;;;2.90;2.70;;;28.90;23.60;;;;;;4978077;28;20205;-67
2022/06/23 10:43:08;;;;;;;3.65;2.80;;;28.90;22.50;;;;;;4980703;28;20216;-67
2022/06/23 10:45:43;;;;;;;3.33;2.65;;;30.20;21.30;;;;;;4955633;28;20678;-67
2022/06/23 10:48:42;;;;;;;3.05;2.50;;;29.70;19.60;;;;;;4995398;28;20232;-67
2022/06/23 10:51:19;;;;;;;3.00;2.50;;;29.50;20.20;;;;;;4991528;28;20225;-67
2022/06/23 10:54:07;;;;;;;2.97;2.63;;;29.40;20.50;;;;;;4992399;28;20201;-67
2022/06/23 10:57:00;;;;;;;2.78;2.58;;;30.50;17.50;;;;;;4995442;28;20295;-67
2022/06/23 10:59:41;;;;;;;2.80;2.53;;;29.30;19.50;;;;;;4989628;28;20196;-67
2022/06/23 11:02:43;;;;;;;4.20;2.78;;;29.30;22.80;;;;;;4995075;28;20216;-67
2022/06/23 11:05:25;;;;;;;4.35;2.88;;;29.30;22.90;;;;;;4971804;28;20205;-67
2022/06/23 11:08:12;;;;;;;2.80;2.60;;;29.60;21.60;;;;;;4994777;28;20204;-67
2022/06/23 11:10:56;;;;;;;7.75;2.50;;;29.20;20.70;;;;;;4976736;28;20236;-67
2022/06/23 11:13:35;;;;;;;3.88;2.70;;;29.50;20.90;;;;;;4995230;28;20651;-67
2022/06/23 11:16:10;;;;;;;6.25;3.35;;;29.90;21.30;;;;;;4977495;28;20205;-67
2022/06/23 11:18:49;;;;;;;3.33;2.95;;;30.20;20.00;;;;;;4986698;28;20202;-67
2022/06/23 11:21:34;;;;;;;3.75;3.13;;;31.20;16.30;;;;;;4969436;28;20205;-67
2022/06/23 11:24:09;;;;;;;3.55;2.70;;;30.50;19.20;;;;;;4974500;28;20209;-67
2022/06/23 11:26:50;;;;;;;3.00;2.80;;;30.10;20.20;;;;;;4986958;28;20196;-67
2022/06/23 11:29:36;;;;;;;3.28;2.63;;;29.70;21.50;;;;;;4959278;28;20213;-67
2022/06/23 11:32:18;;;;;;;4.30;3.15;;;29.50;18.20;;;;;;4970239;28;20217;-67
2022/06/23 11:35:02;;;;;;;4.13;2.70;;;29.30;18.30;;;;;;4975119;28;20214;-67
2022/06/23 11:37:45;;;;;;;3.13;2.55;;;29.70;13.30;;;;;;4981625;28;20615;-69
2022/06/23 11:40:33;;;;;;;3.03;2.63;;;29.80;15.80;;;;;;4985723;28;20201;-67
2022/06/23 11:43:31;;;;;;;5.78;2.67;;;29.80;14.90;;;;;;4975679;28;20228;-67
2022/06/23 11:46:15;;;;;;;2.95;2.70;;;29.60;16.50;;;;;;4935937;28;20213;-67
2022/06/23 11:49:01;;;;;;;3.95;2.53;;;29.40;13.60;;;;;;4989564;28;20200;-70
2022/06/23 11:51:42;;;;;;;3.13;2.80;;;29.80;16.60;;;;;;4973183;28;20253;-78
2022/06/23 11:54:23;;;;;;;3.10;2.80;;;31.40;17.40;;;;;;4965801;28;20272;-79
2022/06/23 11:57:05;;;;;;;4.65;2.83;;;31.80;14.90;;;;;;4968892;28;20244;-79
2022/06/23 11:59:45;;;;;;;4.32;2.92;;;30.90;10.50;;;;;;4975096;28;20208;-79
2022/06/23 12:02:13;;;;;;;3.33;3.00;;;30.50;13.70;;;;;;4991080;28;20263;-79
2022/06/23 12:05:09;;;;;;;4.55;2.95;;;30.30;12.50;;;;;;4991511;28;20201;-79
2022/06/23 12:07:51;;;;;;;3.25;2.88;;;30.10;13.10;;;;;;4984793;28;20263;-79
2022/06/23 12:10:21;;;;;;;4.22;2.90;;;30.20;14.70;;;;;;4987493;28;20264;-79
2022/06/23 12:12:51;;;;;;;7.28;2.53;;;29.90;16.70;;;;;;4983207;28;20230;-79
2022/06/23 12:15:22;;;;;;;3.42;2.60;;;30.60;17.00;;;;;;4973790;28;20639;-79
2022/06/23 12:17:54;;;;;;;4.05;2.85;;;30.30;14.20;;;;;;4986717;28;20248;-79
2022/06/23 12:20:34;;;;;;;2.92;2.70;;;30.40;15.30;;;;;;4992725;28;20260;-79
2022/06/23 12:23:08;;;;;;;3.30;2.90;;;30.70;14.80;;;;;;4974003;28;20660;-79
2022/06/23 12:25:43;;;;;;;4.60;2.50;;;30.70;14.40;;;;;;4975421;28;20213;-79
2022/06/23 12:28:21;;;;;;;3.00;2.80;;;30.80;11.10;;;;;;4973143;28;20251;-79
2022/06/23 12:30:54;;;;;;;5.75;2.88;;;30.60;15.50;;;;;;4985379;28;20560;-79
2022/06/23 12:33:30;;;;;;;4.78;3.08;;;30.60;14.20;;;;;;4986829;28;20253;-79
2022/06/23 12:36:08;;;;;;;3.15;2.92;;;31.80;12.70;;;;;;4978747;28;20236;-79
2022/06/23 12:38:42;;;;;;;4.72;3.55;;;31.20;11.30;;;;;;4971808;28;20205;-79
2022/06/23 12:41:13;;;;;;;3.45;2.88;;;31.00;13.60;;;;;;4964609;28;20628;-79
2022/06/23 12:43:51;;;;;;;5.55;3.40;;;30.40;16.50;;;;;;4993084;28;20618;-79
2022/06/23 12:46:29;;;;;;;3.70;2.75;;;30.40;15.10;;;;;;4991713;28;20205;-79
2022/06/23 12:49:12;;;;;;;3.45;3.15;;;30.60;15.90;;;;;;4958887;28;20237;-79
2022/06/23 12:51:49;;;;;;;3.13;2.92;;;30.80;12.20;;;;;;4975933;28;20222;-79
2022/06/23 12:54:40;;;;;;;3.42;3.03;;;30.30;14.00;;;;;;4992332;28;20267;-79
2022/06/23 12:57:30;;;;;;;3.35;3.05;;;30.30;15.60;;;;;;4991546;28;20219;-79
2022/06/23 13:00:08;;;;;;;3.35;2.55;;;30.50;18.10;;;;;;4983647;28;20272;-80
2022/06/23 13:02:37;;;;;;;4.63;3.17;;;30.10;16.10;;;;;;4988981;28;20220;-79
2022/06/23 13:05:16;;;;;;;4.72;3.08;;;30.30;14.90;;;;;;4986184;28;20264;-79
2022/06/23 13:07:47;;;;;;;5.22;3.10;;;30.20;16.40;;;;;;4990437;28;20209;-79
2022/06/23 13:10:20;;;;;;;2.90;2.70;;;30.30;16.40;;;;;;4985068;28;20233;-78
2022/06/23 13:12:58;;;;;;;3.75;3.10;;;30.00;14.60;;;;;;4987040;28;20279;-79
2022/06/23 13:15:38;;;;;;;3.53;2.80;;;30.00;16.90;;;;;;4973102;28;20208;-79
2022/06/23 13:18:14;;;;;;;3.13;2.90;;;30.20;19.30;;;;;;4966313;28;20557;-80
2022/06/23 13:20:48;;;;;;;5.70;3.10;;;30.70;13.20;;;;;;4967060;28;20253;-79
2022/06/23 13:23:19;;;;;;;4.13;3.22;;;30.70;16.00;;;;;;4973835;28;20204;-79
2022/06/23 13:25:50;;;;;;;3.30;3.00;;;30.80;13.50;;;;;;4990540;28;20667;-79
2022/06/23 13:28:30;;;;;;;2.88;2.60;;;30.60;11.90;;;;;;4986410;28;20209;-79
2022/06/23 13:31:03;;;;;;;3.97;3.13;;;30.30;15.60;;;;;;4969981;28;20279;-79
2022/06/23 13:33:35;;;;;;;3.03;2.70;;;30.50;16.60;;;;;;4992860;28;20236;-79
2022/06/23 13:36:07;;;;;;;5.93;3.10;;;30.40;11.60;;;;;;4988756;28;20674;-80
2022/06/23 13:38:42;;;;;;;3.13;2.88;;;30.40;14.10;;;;;;4994085;28;20215;-79
2022/06/23 13:41:16;;;;;;;9.23;3.13;;;30.70;15.30;;;;;;4991195;28;20264;-80